Pagadian, Philippines
Current Conditions -  °F | °C
As of 6:00 PM on Saturday 25 Oct 2014 (Local Time) from RPMZ Reporting Station
Scattered Clouds Scattered Clouds  
Wind Chill: 82°   Ceiling: Unl
Heat Index: 91°   Visibility: 6mi
Dew Point: 77°   Wind: 0mph
Humidity: 84%   Direction: NA
Pressure: 29.88"   Gusts: NA
Location:  7.84°N, 123.5°E
Report Text: RPMZ 251000Z 00000KT 9999 SCT017CB SCT100 28/25 Q1012 RMK A2988 CB NW-NE
Loading
Personal Weather Stations






























Interactive Weather Map
Tropical Storm Tracking
New forecast layout! Learn more

10-Day Weather Forecast

Advertisements
Track Severe Weather on mobile